createdAt,value
2022-09-18T00:01:34.235Z,8.23
2022-09-18T00:04:09.138Z,7.88
2022-09-18T00:06:39.942Z,7.28
2022-09-18T00:09:14.738Z,6.43
2022-09-18T00:11:46.215Z,7.82
2022-09-18T00:14:17.711Z,9.52
2022-09-18T00:16:45.644Z,8.20
2022-09-18T00:19:13.238Z,7.63
2022-09-18T00:21:47.703Z,7.80
2022-09-18T00:24:17.590Z,6.15
2022-09-18T00:26:46.501Z,6.93
2022-09-18T00:29:15.351Z,6.30
2022-09-18T00:31:42.966Z,7.78
2022-09-18T00:34:15.827Z,7.45
2022-09-18T00:36:43.915Z,6.13
2022-09-18T00:39:12.138Z,6.00
2022-09-18T00:41:42.895Z,9.52
2022-09-18T00:44:33.956Z,8.13
2022-09-18T00:47:10.251Z,6.78
2022-09-18T00:49:44.269Z,7.50
2022-09-18T00:52:14.386Z,9.07
2022-09-18T00:54:45.635Z,5.78
2022-09-18T00:57:21.983Z,8.98
2022-09-18T00:59:51.387Z,5.22
2022-09-18T01:02:19.233Z,7.82
2022-09-18T01:04:47.307Z,7.47
2022-09-18T01:07:42.627Z,8.27
2022-09-18T01:10:18.897Z,8.95
2022-09-18T01:13:06.934Z,6.28
2022-09-18T01:15:39.970Z,7.22
2022-09-18T01:18:43.416Z,6.35
2022-09-18T01:21:17.129Z,6.78
2022-09-18T01:24:28.412Z,6.45
2022-09-18T01:27:04.370Z,8.25
2022-09-18T01:29:57.390Z,9.35
2022-09-18T01:33:08.130Z,5.80
2022-09-18T01:35:46.354Z,5.47
2022-09-18T01:38:20.557Z,7.07
2022-09-18T01:43:30.411Z,5.32
2022-09-18T01:46:04.614Z,7.28
2022-09-18T01:51:20.747Z,6.47
2022-09-18T01:54:03.933Z,7.50
2022-09-18T01:56:39.324Z,7.85
2022-09-18T01:59:24.827Z,6.90
2022-09-18T02:01:56.344Z,6.68
2022-09-18T02:04:29.376Z,6.38
2022-09-18T02:07:31.801Z,7.20
2022-09-18T02:09:59.299Z,6.78
2022-09-18T02:12:30.701Z,6.80
2022-09-18T02:15:03.786Z,6.22
2022-09-18T02:17:48.110Z,6.38
2022-09-18T02:20:24.829Z,4.25
2022-09-18T02:22:56.585Z,6.32
2022-09-18T02:25:32.002Z,4.60
2022-09-18T02:27:59.518Z,6.80
2022-09-18T02:30:28.903Z,5.53
2022-09-18T02:32:57.409Z,6.20
2022-09-18T02:35:36.576Z,6.05
2022-09-18T02:38:35.565Z,6.30
2022-09-18T02:41:32.202Z,6.75
2022-09-18T02:44:14.143Z,7.13
2022-09-18T02:47:01.620Z,5.38
2022-09-18T02:49:46.706Z,6.50
2022-09-18T02:52:46.636Z,6.40
2022-09-18T02:55:24.074Z,6.75
2022-09-18T02:58:02.660Z,5.85
2022-09-18T03:00:31.898Z,5.60
2022-09-18T03:03:00.162Z,8.05
2022-09-18T03:05:27.714Z,6.55
2022-09-18T03:07:54.948Z,5.25
2022-09-18T03:10:22.161Z,6.88
2022-09-18T03:12:49.442Z,6.65
2022-09-18T03:15:17.064Z,4.93
2022-09-18T03:17:44.269Z,6.25
2022-09-18T03:20:11.571Z,5.03
2022-09-18T03:22:38.853Z,5.22
2022-09-18T03:25:06.982Z,7.30
2022-09-18T03:27:34.191Z,5.38
2022-09-18T03:30:01.438Z,6.60
2022-09-18T03:32:28.671Z,11.60
2022-09-18T03:34:56.693Z,8.00
2022-09-18T03:37:24.430Z,5.70
2022-09-18T03:39:51.737Z,4.72
2022-09-18T03:42:18.969Z,6.00
2022-09-18T03:44:46.131Z,5.97
2022-09-18T03:47:13.371Z,4.40
2022-09-18T03:49:40.524Z,5.20
2022-09-18T03:52:07.847Z,5.82
2022-09-18T03:54:35.054Z,6.63
2022-09-18T03:57:02.307Z,7.85
2022-09-18T03:59:29.569Z,5.07
2022-09-18T04:01:57.707Z,4.38
2022-09-18T04:04:25.252Z,6.35
2022-09-18T04:06:52.464Z,5.22
2022-09-18T04:09:19.780Z,5.50
2022-09-18T04:11:47.260Z,6.18
2022-09-18T04:14:14.898Z,5.20
2022-09-18T04:16:42.154Z,6.68
2022-09-18T04:19:09.381Z,5.75
2022-09-18T04:21:36.607Z,6.47
2022-09-18T04:24:04.030Z,4.75
2022-09-18T04:26:31.257Z,4.80
2022-09-18T04:28:59.452Z,5.20
2022-09-18T04:31:26.860Z,5.97
2022-09-18T04:33:54.256Z,5.38
2022-09-18T04:36:21.453Z,5.75
2022-09-18T04:38:48.714Z,4.28
2022-09-18T04:41:16.004Z,5.38
2022-09-18T04:43:43.536Z,6.20
2022-09-18T04:46:11.035Z,5.47
2022-09-18T04:48:38.372Z,4.72
2022-09-18T04:51:05.941Z,3.85
2022-09-18T04:53:35.487Z,6.72
2022-09-18T04:56:02.956Z,5.18
2022-09-18T04:58:30.238Z,6.40
2022-09-18T05:00:57.509Z,4.60
2022-09-18T05:03:24.798Z,3.15
2022-09-18T05:05:52.800Z,4.20
2022-09-18T05:08:19.976Z,4.97
2022-09-18T05:10:47.449Z,4.43
2022-09-18T05:13:14.911Z,6.68
2022-09-18T05:15:42.233Z,4.20
2022-09-18T05:18:12.735Z,4.20
2022-09-18T05:20:40.127Z,4.30
2022-09-18T05:23:07.554Z,4.45
2022-09-18T05:25:34.827Z,5.13
2022-09-18T05:28:03.866Z,6.15
2022-09-18T05:30:32.076Z,3.95
2022-09-18T05:33:05.349Z,3.40
2022-09-18T05:35:35.013Z,4.63
2022-09-18T05:38:04.102Z,3.72
2022-09-18T05:40:37.424Z,6.15
2022-09-18T05:43:07.319Z,4.13
2022-09-18T05:45:35.376Z,4.32
2022-09-18T05:48:06.052Z,3.88
2022-09-18T05:50:36.379Z,3.38
2022-09-18T05:53:14.466Z,3.10
2022-09-18T05:55:42.298Z,3.95
2022-09-18T05:58:16.076Z,2.72
2022-09-18T06:00:47.142Z,2.45
2022-09-18T06:03:16.827Z,5.20
2022-09-18T06:05:52.052Z,3.28
2022-09-18T06:08:19.680Z,2.33
2022-09-18T06:10:47.433Z,4.43
2022-09-18T06:13:17.924Z,1.67
2022-09-18T06:15:52.385Z,4.28
2022-09-18T06:18:20.039Z,2.60
2022-09-18T06:20:57.468Z,3.75
2022-09-18T06:23:27.937Z,2.78
2022-09-18T06:26:04.770Z,4.47
2022-09-18T06:28:34.199Z,2.38
2022-09-18T06:31:03.359Z,3.22
2022-09-18T06:33:30.780Z,3.85
2022-09-18T06:36:00.756Z,2.28
2022-09-18T06:38:28.483Z,2.60
2022-09-18T06:40:55.744Z,4.20
2022-09-18T06:43:23.038Z,4.57
2022-09-18T06:45:55.461Z,2.55
2022-09-18T06:48:24.378Z,5.05
2022-09-18T06:50:56.149Z,2.45
2022-09-18T06:53:24.324Z,4.35
2022-09-18T06:55:51.851Z,3.20
2022-09-18T06:58:20.539Z,2.00
2022-09-18T07:00:47.836Z,4.18
2022-09-18T07:03:15.427Z,3.22
2022-09-18T07:05:46.949Z,2.97
2022-09-18T07:08:15.025Z,2.92
2022-09-18T07:10:42.374Z,3.05
2022-09-18T07:13:10.211Z,3.90
2022-09-18T07:15:37.461Z,2.75
2022-09-18T07:18:08.039Z,2.85
2022-09-18T07:20:35.365Z,4.30
2022-09-18T07:23:03.875Z,2.83
2022-09-18T07:25:34.555Z,1.48
2022-09-18T07:28:10.277Z,3.05
2022-09-18T07:30:39.208Z,2.28
2022-09-18T07:33:10.078Z,3.15
2022-09-18T07:35:37.382Z,4.47
2022-09-18T07:38:07.342Z,2.70
2022-09-18T07:40:34.998Z,3.38
2022-09-18T07:43:04.647Z,3.00
2022-09-18T07:45:31.955Z,2.95
2022-09-18T07:48:05.985Z,2.47
2022-09-18T07:50:34.184Z,2.97
2022-09-18T07:53:04.929Z,2.55
2022-09-18T07:55:35.233Z,3.25
2022-09-18T07:58:06.319Z,2.67
2022-09-18T08:00:36.504Z,2.33
2022-09-18T08:03:13.269Z,1.48
2022-09-18T08:05:42.151Z,3.15
2022-09-18T08:08:15.300Z,2.47
2022-09-18T08:10:45.216Z,3.78
2022-09-18T08:13:13.671Z,3.08
2022-09-18T08:15:42.912Z,0.95
2022-09-18T08:18:11.720Z,3.20
2022-09-18T08:20:39.254Z,1.75
2022-09-18T08:23:12.564Z,2.78
2022-09-18T08:25:41.289Z,2.23
2022-09-18T08:28:09.780Z,2.50
2022-09-18T08:30:37.049Z,1.13
2022-09-18T08:33:08.097Z,1.85
2022-09-18T08:35:35.426Z,4.07
2022-09-18T08:38:02.845Z,2.05
2022-09-18T08:40:52.561Z,2.40
2022-09-18T08:43:19.808Z,1.83
2022-09-18T08:46:09.380Z,2.88
2022-09-18T08:48:48.514Z,3.30
2022-09-18T08:51:33.191Z,1.73
2022-09-18T08:54:38.414Z,7.10
2022-09-18T08:59:52.830Z,1.63
2022-09-18T09:02:47.260Z,1.67
2022-09-18T09:05:19.442Z,3.58
2022-09-18T09:08:00.862Z,1.30
2022-09-18T09:10:47.225Z,1.33
2022-09-18T09:13:20.329Z,1.35
2022-09-18T09:15:59.078Z,1.20
2022-09-18T09:18:39.883Z,2.40
2022-09-18T09:21:24.820Z,2.88
2022-09-18T09:24:08.405Z,2.15
2022-09-18T09:26:36.995Z,2.00
2022-09-18T09:29:19.101Z,1.42
2022-09-18T09:32:21.220Z,2.03
2022-09-18T09:35:30.280Z,4.70
2022-09-18T09:38:06.837Z,1.23
2022-09-18T09:40:45.471Z,1.63
2022-09-18T09:43:58.677Z,1.23
2022-09-18T09:46:57.920Z,1.65
2022-09-18T09:49:29.875Z,1.75
2022-09-18T09:52:25.396Z,2.53
2022-09-18T09:55:22.486Z,2.25
2022-09-18T09:58:31.534Z,0.80
2022-09-18T10:01:12.255Z,2.17
2022-09-18T10:04:10.935Z,2.72
2022-09-18T10:07:02.131Z,2.00
2022-09-18T10:09:51.790Z,2.20
2022-09-18T10:12:52.023Z,3.00
2022-09-18T10:15:47.250Z,3.95
2022-09-18T10:18:19.765Z,2.10
2022-09-18T10:20:51.683Z,2.08
2022-09-18T10:23:33.878Z,1.50
2022-09-18T10:26:02.346Z,2.25
2022-09-18T10:28:30.304Z,2.75
2022-09-18T10:31:07.268Z,1.95
2022-09-18T10:33:43.478Z,5.88
2022-09-18T10:36:38.220Z,1.58
2022-09-18T10:39:38.057Z,2.63
2022-09-18T10:42:07.146Z,2.08
2022-09-18T10:44:43.769Z,3.80
2022-09-18T10:47:21.937Z,2.42
2022-09-18T10:50:07.079Z,1.85
2022-09-18T10:52:47.821Z,2.45
2022-09-18T10:55:25.411Z,2.40
2022-09-18T10:57:58.379Z,1.65
2022-09-18T11:00:25.727Z,2.65
2022-09-18T11:03:20.920Z,1.65
2022-09-18T11:05:53.110Z,3.75
2022-09-18T11:08:41.558Z,3.17
2022-09-18T11:11:29.294Z,3.08
2022-09-18T11:14:04.471Z,3.15
2022-09-18T11:16:37.941Z,3.85
2022-09-18T11:19:11.318Z,2.90
2022-09-18T11:21:55.217Z,3.33
2022-09-18T11:24:33.622Z,3.78
2022-09-18T11:27:21.663Z,4.03
2022-09-18T11:29:49.541Z,3.55
2022-09-18T11:32:27.540Z,4.32
2022-09-18T11:34:58.397Z,3.38
2022-09-18T11:37:35.370Z,4.03
2022-09-18T11:40:08.564Z,4.60
2022-09-18T11:42:45.130Z,3.90
2022-09-18T11:45:30.659Z,4.05
2022-09-18T11:48:34.712Z,6.88
2022-09-18T11:51:10.224Z,4.75
2022-09-18T11:53:46.318Z,3.80
2022-09-18T11:56:45.611Z,4.65
2022-09-18T11:59:35.626Z,4.05
2022-09-18T12:02:42.587Z,4.72
2022-09-18T12:05:27.244Z,4.72
2022-09-18T12:11:15.768Z,4.13
2022-09-18T12:14:01.673Z,5.32
2022-09-18T12:17:17.306Z,5.28
2022-09-18T12:19:52.140Z,5.75
2022-09-18T12:22:27.564Z,4.53
2022-09-18T12:24:55.916Z,6.35
2022-09-18T12:28:03.447Z,4.78
2022-09-18T12:30:43.287Z,4.70
2022-09-18T12:34:04.392Z,3.92
2022-09-18T12:36:46.304Z,5.03
2022-09-18T12:39:49.981Z,6.20
2022-09-18T12:42:54.632Z,5.90
2022-09-18T12:45:30.651Z,5.93
2022-09-18T12:48:36.241Z,6.85
2022-09-18T12:51:24.695Z,5.30
2022-09-18T12:54:24.531Z,4.70
2022-09-18T12:57:05.992Z,5.20
2022-09-18T12:59:39.535Z,12.18
2022-09-18T13:02:37.274Z,5.50
2022-09-18T13:05:26.041Z,5.63
2022-09-18T13:08:05.304Z,3.55
2022-09-18T13:10:46.022Z,5.10
2022-09-18T13:13:31.105Z,3.40
2022-09-18T13:16:06.829Z,4.88
2022-09-18T13:18:39.218Z,6.32
2022-09-18T13:21:24.354Z,5.63
2022-09-18T13:23:53.575Z,3.08
2022-09-18T13:26:24.779Z,6.47
2022-09-18T13:28:52.023Z,4.43
2022-09-18T13:31:33.276Z,5.05
2022-09-18T13:34:04.690Z,7.22
2022-09-18T13:36:37.278Z,3.75
2022-09-18T13:39:22.795Z,6.63
2022-09-18T13:41:56.583Z,5.65
2022-09-18T13:44:27.453Z,4.57
2022-09-18T13:46:59.138Z,4.72
2022-09-18T13:49:32.938Z,4.32
2022-09-18T13:52:34.228Z,2.70
2022-09-18T13:55:13.310Z,4.82
2022-09-18T13:57:43.477Z,4.28
2022-09-18T14:00:20.241Z,6.43
2022-09-18T14:02:48.927Z,5.53
2022-09-18T14:05:33.791Z,5.57
2022-09-18T14:08:09.880Z,4.30
2022-09-18T14:11:11.410Z,5.05
2022-09-18T14:13:43.192Z,5.57
2022-09-18T14:18:47.186Z,2.92
2022-09-18T14:21:19.085Z,4.30
2022-09-18T14:23:46.278Z,6.75
2022-09-18T14:26:32.174Z,5.38
2022-09-18T14:29:29.396Z,4.20
2022-09-18T14:32:00.058Z,6.00
2022-09-18T14:34:43.179Z,2.80
2022-09-18T14:37:24.827Z,5.20
2022-09-18T14:40:04.624Z,3.35
2022-09-18T14:42:36.434Z,2.65
2022-09-18T14:45:06.996Z,2.97
2022-09-18T14:47:34.475Z,4.55
2022-09-18T14:50:01.811Z,4.22
2022-09-18T14:52:42.502Z,9.65
2022-09-18T14:55:18.211Z,4.75
2022-09-18T14:57:53.747Z,3.75
2022-09-18T15:00:25.545Z,5.47
2022-09-18T15:02:58.474Z,3.20
2022-09-18T15:05:28.381Z,5.30
2022-09-18T15:08:21.662Z,2.65
2022-09-18T15:10:53.955Z,5.57
2022-09-18T15:13:22.682Z,3.97
2022-09-18T15:16:01.526Z,2.50
2022-09-18T15:18:30.714Z,3.67
2022-09-18T15:21:03.417Z,5.13
2022-09-18T15:23:39.074Z,5.03
2022-09-18T15:26:13.182Z,7.30
2022-09-18T15:28:45.713Z,4.32
2022-09-18T15:31:14.350Z,6.55
2022-09-18T15:34:08.613Z,5.22
2022-09-18T15:36:38.668Z,3.72
2022-09-18T15:39:08.063Z,3.42
2022-09-18T15:41:46.329Z,2.95
2022-09-18T15:44:34.891Z,2.15
2022-09-18T15:47:38.364Z,2.08
2022-09-18T15:50:35.914Z,3.88
2022-09-18T15:53:22.786Z,2.42
2022-09-18T15:55:58.665Z,2.10
2022-09-18T15:58:38.368Z,4.70
2022-09-18T16:01:14.193Z,5.22
2022-09-18T16:03:41.709Z,3.15
2022-09-18T16:06:25.942Z,6.55
2022-09-18T16:08:56.562Z,5.00
2022-09-18T16:11:44.735Z,4.68
2022-09-18T16:14:45.289Z,5.95
2022-09-18T16:17:33.788Z,7.68
2022-09-18T16:20:40.152Z,6.10
2022-09-18T16:23:30.550Z,6.00
2022-09-18T16:26:15.506Z,5.13
2022-09-18T16:28:50.662Z,4.63
2022-09-18T16:31:21.473Z,3.92
2022-09-18T16:34:25.026Z,4.15
2022-09-18T16:36:55.288Z,4.82
2022-09-18T16:39:26.453Z,8.57
2022-09-18T16:41:53.778Z,5.13
2022-09-18T16:44:20.978Z,4.47
2022-09-18T16:47:06.089Z,4.05
2022-09-18T16:49:39.415Z,6.88
2022-09-18T16:52:06.939Z,4.57
2022-09-18T16:54:34.265Z,3.88
2022-09-18T16:57:19.846Z,3.90
2022-09-18T16:59:49.650Z,4.80
2022-09-18T17:02:23.311Z,3.20
2022-09-18T17:04:53.165Z,4.15
2022-09-18T17:07:20.417Z,3.42
2022-09-18T17:09:47.616Z,5.38
2022-09-18T17:12:14.869Z,6.80
2022-09-18T17:14:42.127Z,6.50
2022-09-18T17:17:09.388Z,6.28
2022-09-18T17:19:36.937Z,8.55
2022-09-18T17:22:04.150Z,9.02
2022-09-18T17:24:31.403Z,10.20
2022-09-18T17:26:59.169Z,6.78
2022-09-18T17:29:27.584Z,6.35
2022-09-18T17:31:54.859Z,7.55
2022-09-18T17:34:22.276Z,7.15
2022-09-18T17:36:49.592Z,7.40
2022-09-18T17:39:17.190Z,7.93
2022-09-18T17:41:45.943Z,7.60
2022-09-18T17:44:13.301Z,5.13
2022-09-18T17:46:40.671Z,4.97
2022-09-18T17:49:08.051Z,4.95
2022-09-18T17:51:35.314Z,5.78
2022-09-18T17:54:05.200Z,4.80
2022-09-18T17:56:34.132Z,4.72
2022-09-18T17:59:08.476Z,3.75
2022-09-18T18:01:43.427Z,5.63
2022-09-18T18:04:10.777Z,6.43
2022-09-18T18:06:38.997Z,6.43
2022-09-18T18:09:10.099Z,5.15
2022-09-18T18:11:38.328Z,6.43
2022-09-18T18:14:08.286Z,6.70
2022-09-18T18:16:37.269Z,8.27
2022-09-18T18:19:08.852Z,7.20
2022-09-18T18:21:36.500Z,9.90
2022-09-18T18:24:09.152Z,7.05
2022-09-18T18:26:38.634Z,7.57
2022-09-18T18:29:11.132Z,8.43
2022-09-18T18:31:43.463Z,6.13
2022-09-18T18:34:13.740Z,3.97
2022-09-18T18:36:43.007Z,4.25
2022-09-18T18:39:12.496Z,6.93
2022-09-18T18:41:40.265Z,7.47
2022-09-18T18:44:08.367Z,6.57
2022-09-18T18:46:37.899Z,9.18
2022-09-18T18:49:09.479Z,8.40
2022-09-18T18:51:44.133Z,7.47
2022-09-18T18:54:12.956Z,8.68
2022-09-18T18:56:41.438Z,7.18
2022-09-18T18:59:14.192Z,5.25
2022-09-18T19:01:43.202Z,4.88
2022-09-18T19:04:14.121Z,7.13
2022-09-18T19:06:43.695Z,6.68
2022-09-18T19:09:24.627Z,5.90
2022-09-18T19:11:54.026Z,8.75
2022-09-18T19:14:26.051Z,5.80
2022-09-18T19:16:54.744Z,6.15
2022-09-18T19:19:24.966Z,8.15
2022-09-18T19:21:53.330Z,6.60
2022-09-18T19:24:21.790Z,6.88
2022-09-18T19:26:49.107Z,6.88
2022-09-18T19:29:19.546Z,7.13
2022-09-18T19:31:48.378Z,6.22
2022-09-18T19:34:19.435Z,4.35
2022-09-18T19:36:50.127Z,4.53
2022-09-18T19:39:21.285Z,6.35
2022-09-18T19:42:12.322Z,3.63
2022-09-18T19:45:02.321Z,3.40
2022-09-18T19:47:38.513Z,3.80
2022-09-18T19:50:06.344Z,5.88
2022-09-18T19:52:33.891Z,5.35
2022-09-18T19:55:01.252Z,4.25
2022-09-18T19:57:30.158Z,4.63
2022-09-18T19:59:59.425Z,5.15
2022-09-18T20:02:27.811Z,4.35
2022-09-18T20:04:55.559Z,4.30
2022-09-18T20:07:22.885Z,2.60
2022-09-18T20:09:50.235Z,3.13
2022-09-18T20:12:18.151Z,3.70
2022-09-18T20:14:45.534Z,4.88
2022-09-18T20:17:12.761Z,5.20
2022-09-18T20:19:39.939Z,2.80
2022-09-18T20:22:07.911Z,2.92
2022-09-18T20:24:35.147Z,3.33
2022-09-18T20:27:02.434Z,3.80
2022-09-18T20:29:30.582Z,3.55
2022-09-18T20:31:58.264Z,5.55
2022-09-18T20:37:14.541Z,3.40
2022-09-18T20:39:41.747Z,4.85
2022-09-18T20:42:08.946Z,3.20
2022-09-18T20:44:36.428Z,7.07
2022-09-18T20:47:05.319Z,5.97
2022-09-18T20:49:33.667Z,4.50
2022-09-18T20:52:03.619Z,4.32
2022-09-18T20:54:31.173Z,3.20
2022-09-18T20:56:59.644Z,2.55
2022-09-18T20:59:27.125Z,2.35
2022-09-18T21:01:54.345Z,2.33
2022-09-18T21:04:21.735Z,3.10
2022-09-18T21:06:56.434Z,2.65
2022-09-18T21:09:27.457Z,3.67
2022-09-18T21:11:56.929Z,2.97
2022-09-18T21:14:25.542Z,2.47
2022-09-18T21:16:53.382Z,3.28
2022-09-18T21:19:20.692Z,3.92
2022-09-18T21:21:49.217Z,2.83
2022-09-18T21:24:17.550Z,2.17
2022-09-18T21:26:48.968Z,2.53
2022-09-18T21:29:18.059Z,2.63
2022-09-18T21:31:47.576Z,2.75
2022-09-18T21:34:24.269Z,2.20
2022-09-18T21:36:55.256Z,2.17
2022-09-18T21:39:22.777Z,2.47
2022-09-18T21:41:51.989Z,2.85
2022-09-18T21:44:24.702Z,2.53
2022-09-18T21:46:52.224Z,3.40
2022-09-18T21:49:19.957Z,2.92
2022-09-18T21:51:47.262Z,3.67
2022-09-18T21:54:19.567Z,2.63
2022-09-18T21:56:56.232Z,3.03
2022-09-18T21:59:26.634Z,2.50
2022-09-18T22:01:55.175Z,2.45
2022-09-18T22:04:29.408Z,2.25
2022-09-18T22:06:58.771Z,2.55
2022-09-18T22:09:39.408Z,2.35
2022-09-18T22:12:07.945Z,3.70
2022-09-18T22:14:38.269Z,3.17
2022-09-18T22:17:09.191Z,1.70
2022-09-18T22:19:41.150Z,2.25
2022-09-18T22:22:09.196Z,2.75
2022-09-18T22:24:36.516Z,2.38
2022-09-18T22:27:08.673Z,1.65
2022-09-18T22:29:38.502Z,3.13
2022-09-18T22:32:06.731Z,2.25
2022-09-18T22:34:35.138Z,3.55
2022-09-18T22:37:03.256Z,3.75
2022-09-18T22:39:30.861Z,4.30
2022-09-18T22:41:58.767Z,2.58
2022-09-18T22:44:26.140Z,2.22
2022-09-18T22:46:53.805Z,2.55
2022-09-18T22:49:23.839Z,3.75
2022-09-18T22:51:52.362Z,2.05
2022-09-18T22:54:24.936Z,2.03
2022-09-18T22:56:53.308Z,2.60
2022-09-18T22:59:24.124Z,4.15
2022-09-18T23:02:02.405Z,3.72
2022-09-18T23:04:32.904Z,3.10
2022-09-18T23:07:01.373Z,1.92
2022-09-18T23:09:29.434Z,2.08
2022-09-18T23:11:57.770Z,2.70
2022-09-18T23:14:29.299Z,3.28
2022-09-18T23:16:57.902Z,2.72
2022-09-18T23:19:28.952Z,2.33
2022-09-18T23:21:57.057Z,4.32
2022-09-18T23:24:25.544Z,5.78
2022-09-18T23:26:55.844Z,2.92
2022-09-18T23:29:25.815Z,2.08
2022-09-18T23:31:55.681Z,2.05
2022-09-18T23:34:28.183Z,4.82
2022-09-18T23:36:58.168Z,3.33
2022-09-18T23:39:32.659Z,3.75
2022-09-18T23:42:02.124Z,1.88
2022-09-18T23:44:31.383Z,1.40
2022-09-18T23:47:00.238Z,3.55
2022-09-18T23:49:28.508Z,3.70
2022-09-18T23:51:57.136Z,2.78
2022-09-18T23:54:29.221Z,2.22
2022-09-18T23:56:56.982Z,3.58
2022-09-18T23:59:26.001Z,5.00
